LMML/MLA METAR and TAF weather

Enter ICAO airport designator
Station Type Date Time Source
LMML METAR 2020/06/06 02:45 UTC NOAA

LMML 060245Z 31016KT 9999 FEW019 19/15 Q1010 NOSIG


Station Type Date Time Source
LMML Decoded METAR 2020/06/06 02:45 UTC NOAA

Luqa, Malta (LMML) 35-51N 014-29E 91M
Jun 05, 2020 - 10:45 PM EDT / 2020.06.06 0245 UTC
Wind: from the NW (310 degrees) at 18 MPH (16 KT):0
Visibility: greater than 7 mile(s):0
Sky conditions: mostly clear
Temperature: 66 F (19 C)
Dew Point: 59 F (15 C)
Relative Humidity: 77%
Pressure (altimeter): 29.83 in. Hg (1010 hPa)
ob: LMML 060245Z 31016KT 9999 FEW019 19/15 Q1010 NOSIG
cycle: 3

Station Type Date Time Source
LMML TAF 2020/06/05 18:07 UTC NOAA

TAF LMML 051800Z 0518/0618 32022G32KT 9999 FEW025
BECMG 0522/0601 32018KT

Example: see airport list